sensor_id;sensor_type;location;lat;lon;timestamp;pressure;altitude;pressure_sealevel;temperature;humidity
2405;BME280;1213;43.206;27.922;2022-07-12T00:01:00;101415.06;;;19.72;100.00
2405;BME280;1213;43.206;27.922;2022-07-12T00:03:25;101416.06;;;19.71;100.00
2405;BME280;1213;43.206;27.922;2022-07-12T00:05:51;101412.44;;;19.62;100.00
2405;BME280;1213;43.206;27.922;2022-07-12T00:08:17;101421.69;;;19.67;100.00
2405;BME280;1213;43.206;27.922;2022-07-12T00:10:42;101417.63;;;19.54;100.00
2405;BME280;1213;43.206;27.922;2022-07-12T00:13:08;101410.47;;;19.54;100.00
2405;BME280;1213;43.206;27.922;2022-07-12T00:15:33;101419.31;;;19.55;100.00
2405;BME280;1213;43.206;27.922;2022-07-12T00:17:59;101419.06;;;19.58;100.00
2405;BME280;1213;43.206;27.922;2022-07-12T00:20:24;101423.56;;;19.57;100.00
2405;BME280;1213;43.206;27.922;2022-07-12T00:22:50;101423.41;;;19.59;100.00
2405;BME280;1213;43.206;27.922;2022-07-12T00:25:15;101423.41;;;19.59;100.00
2405;BME280;1213;43.206;27.922;2022-07-12T00:27:41;101424.25;;;19.50;100.00
2405;BME280;1213;43.206;27.922;2022-07-12T00:30:07;101425.09;;;19.50;100.00
2405;BME280;1213;43.206;27.922;2022-07-12T00:32:33;101429.69;;;19.48;100.00
2405;BME280;1213;43.206;27.922;2022-07-12T00:34:59;101431.53;;;19.48;100.00
2405;BME280;1213;43.206;27.922;2022-07-12T00:37:25;101421.00;;;19.46;100.00
2405;BME280;1213;43.206;27.922;2022-07-12T00:39:51;101422.69;;;19.47;100.00
2405;BME280;1213;43.206;27.922;2022-07-12T00:42:17;101425.66;;;19.44;100.00
2405;BME280;1213;43.206;27.922;2022-07-12T00:44:43;101421.44;;;19.41;100.00
2405;BME280;1213;43.206;27.922;2022-07-12T00:49:49;101424.38;;;19.38;100.00
2405;BME280;1213;43.206;27.922;2022-07-12T00:52:14;101427.91;;;19.29;100.00
2405;BME280;1213;43.206;27.922;2022-07-12T00:54:40;101430.00;;;19.45;100.00
2405;BME280;1213;43.206;27.922;2022-07-12T00:57:06;101425.66;;;19.34;100.00
2405;BME280;1213;43.206;27.922;2022-07-12T00:59:31;101427.06;;;19.38;100.00
2405;BME280;1213;43.206;27.922;2022-07-12T01:01:57;101431.56;;;19.28;100.00
2405;BME280;1213;43.206;27.922;2022-07-12T01:04:24;101426.94;;;19.21;100.00
2405;BME280;1213;43.206;27.922;2022-07-12T01:06:49;101428.63;;;19.22;100.00
2405;BME280;1213;43.206;27.922;2022-07-12T01:09:15;101432.66;;;19.26;100.00
2405;BME280;1213;43.206;27.922;2022-07-12T01:11:41;101433.13;;;19.21;100.00
2405;BME280;1213;43.206;27.922;2022-07-12T01:14:06;101432.00;;;19.14;100.00
2405;BME280;1213;43.206;27.922;2022-07-12T01:16:33;101434.38;;;19.17;100.00
2405;BME280;1213;43.206;27.922;2022-07-12T01:18:58;101424.13;;;19.22;100.00
2405;BME280;1213;43.206;27.922;2022-07-12T01:21:27;101424.97;;;19.23;100.00
2405;BME280;1213;43.206;27.922;2022-07-12T01:23:57;101422.28;;;19.32;100.00
2405;BME280;1213;43.206;27.922;2022-07-12T01:26:23;101426.38;;;19.36;100.00
2405;BME280;1213;43.206;27.922;2022-07-12T01:28:48;101426.78;;;19.32;100.00
2405;BME280;1213;43.206;27.922;2022-07-12T01:31:15;101428.19;;;19.36;100.00
2405;BME280;1213;43.206;27.922;2022-07-12T01:33:41;101428.88;;;19.38;100.00
2405;BME280;1213;43.206;27.922;2022-07-12T01:36:06;101430.72;;;19.37;100.00
2405;BME280;1213;43.206;27.922;2022-07-12T01:38:32;101429.88;;;19.37;100.00
2405;BME280;1213;43.206;27.922;2022-07-12T01:40:58;101422.13;;;19.34;100.00
2405;BME280;1213;43.206;27.922;2022-07-12T01:43:23;101427.22;;;19.37;100.00
2405;BME280;1213;43.206;27.922;2022-07-12T01:45:49;101430.72;;;19.37;100.00
2405;BME280;1213;43.206;27.922;2022-07-12T01:48:14;101432.94;;;19.32;100.00
2405;BME280;1213;43.206;27.922;2022-07-12T01:50:40;101424.69;;;19.26;100.00
2405;BME280;1213;43.206;27.922;2022-07-12T01:53:07;101427.34;;;19.26;100.00
2405;BME280;1213;43.206;27.922;2022-07-12T01:55:33;101429.91;;;19.27;100.00
2405;BME280;1213;43.206;27.922;2022-07-12T01:57:58;101424.41;;;19.19;100.00
2405;BME280;1213;43.206;27.922;2022-07-12T02:00:24;101429.75;;;19.29;100.00
2405;BME280;1213;43.206;27.922;2022-07-12T02:02:50;101431.28;;;19.31;100.00
2405;BME280;1213;43.206;27.922;2022-07-12T02:05:16;101423.97;;;19.33;100.00
2405;BME280;1213;43.206;27.922;2022-07-12T02:07:41;101425.78;;;19.33;100.00
2405;BME280;1213;43.206;27.922;2022-07-12T02:10:07;101431.41;;;19.30;100.00
2405;BME280;1213;43.206;27.922;2022-07-12T02:12:34;101433.78;;;19.33;100.00
2405;BME280;1213;43.206;27.922;2022-07-12T02:15:01;101425.66;;;19.25;100.00
2405;BME280;1213;43.206;27.922;2022-07-12T02:17:27;101428.31;;;19.34;100.00
2405;BME280;1213;43.206;27.922;2022-07-12T02:19:52;101430.44;;;19.31;100.00
2405;BME280;1213;43.206;27.922;2022-07-12T02:22:18;101426.78;;;19.32;100.00
2405;BME280;1213;43.206;27.922;2022-07-12T02:24:43;101422.00;;;19.26;100.00
2405;BME280;1213;43.206;27.922;2022-07-12T02:27:09;101425.97;;;19.22;100.00
2405;BME280;1213;43.206;27.922;2022-07-12T02:29:34;101434.22;;;19.19;100.00
2405;BME280;1213;43.206;27.922;2022-07-12T02:32:03;101429.63;;;19.21;100.00
2405;BME280;1213;43.206;27.922;2022-07-12T02:34:28;101436.19;;;19.17;100.00
2405;BME280;1213;43.206;27.922;2022-07-12T02:36:55;101429.31;;;19.24;100.00
2405;BME280;1213;43.206;27.922;2022-07-12T02:39:21;101438.16;;;19.15;100.00
2405;BME280;1213;43.206;27.922;2022-07-12T02:41:46;101433.13;;;19.21;100.00
2405;BME280;1213;43.206;27.922;2022-07-12T02:44:12;101441.38;;;19.08;100.00
2405;BME280;1213;43.206;27.922;2022-07-12T02:46:37;101442.50;;;19.16;100.00
2405;BME280;1213;43.206;27.922;2022-07-12T02:49:03;101447.56;;;19.09;100.00
2405;BME280;1213;43.206;27.922;2022-07-12T02:51:28;101438.31;;;19.13;100.00
2405;BME280;1213;43.206;27.922;2022-07-12T02:53:53;101448.13;;;19.12;100.00
2405;BME280;1213;43.206;27.922;2022-07-12T02:56:19;101447.84;;;19.16;100.00
2405;BME280;1213;43.206;27.922;2022-07-12T02:58:44;101450.78;;;19.12;100.00
2405;BME280;1213;43.206;27.922;2022-07-12T03:01:10;101450.22;;;19.19;100.00
2405;BME280;1213;43.206;27.922;2022-07-12T03:03:36;101441.53;;;19.17;100.00
2405;BME280;1213;43.206;27.922;2022-07-12T03:06:02;101451.63;;;19.23;100.00
2405;BME280;1213;43.206;27.922;2022-07-12T03:08:27;101450.22;;;19.28;100.00
2405;BME280;1213;43.206;27.922;2022-07-12T03:10:53;101450.22;;;19.28;100.00
2405;BME280;1213;43.206;27.922;2022-07-12T03:13:18;101450.34;;;19.27;100.00
2405;BME280;1213;43.206;27.922;2022-07-12T03:15:45;101461.28;;;19.24;100.00
2405;BME280;1213;43.206;27.922;2022-07-12T03:18:15;101458.22;;;19.28;100.00
2405;BME280;1213;43.206;27.922;2022-07-12T03:20:41;101453.72;;;19.19;100.00
2405;BME280;1213;43.206;27.922;2022-07-12T03:23:06;101459.47;;;19.15;100.00
2405;BME280;1213;43.206;27.922;2022-07-12T03:25:32;101464.09;;;19.22;100.00
2405;BME280;1213;43.206;27.922;2022-07-12T03:27:57;101455.28;;;19.22;100.00
2405;BME280;1213;43.206;27.922;2022-07-12T03:30:22;101455.69;;;19.36;100.00
2405;BME280;1213;43.206;27.922;2022-07-12T03:32:48;101469.84;;;19.37;100.00
2405;BME280;1213;43.206;27.922;2022-07-12T03:35:14;101461.56;;;19.30;100.00
2405;BME280;1213;43.206;27.922;2022-07-12T03:37:43;101471.41;;;19.30;100.00
2405;BME280;1213;43.206;27.922;2022-07-12T03:40:09;101478.56;;;19.29;100.00
2405;BME280;1213;43.206;27.922;2022-07-12T03:42:35;101467.34;;;19.35;100.00
2405;BME280;1213;43.206;27.922;2022-07-12T03:45:01;101461.28;;;19.43;100.00
2405;BME280;1213;43.206;27.922;2022-07-12T03:47:27;101470.53;;;19.49;100.00
2405;BME280;1213;43.206;27.922;2022-07-12T03:49:52;101466.31;;;19.56;100.00
2405;BME280;1213;43.206;27.922;2022-07-12T03:52:18;101465.47;;;19.55;100.00
2405;BME280;1213;43.206;27.922;2022-07-12T03:54:43;101466.59;;;19.62;100.00
2405;BME280;1213;43.206;27.922;2022-07-12T03:57:08;101463.53;;;19.67;100.00
2405;BME280;1213;43.206;27.922;2022-07-12T03:59:45;101463.38;;;19.68;100.00
2405;BME280;1213;43.206;27.922;2022-07-12T04:02:11;101460.81;;;19.77;100.00
2405;BME280;1213;43.206;27.922;2022-07-12T04:04:37;101463.47;;;19.86;100.00
2405;BME280;1213;43.206;27.922;2022-07-12T04:07:03;101466.72;;;19.80;100.00
2405;BME280;1213;43.206;27.922;2022-07-12T04:09:29;101472.59;;;19.84;100.00
2405;BME280;1213;43.206;27.922;2022-07-12T04:11:55;101463.75;;;19.83;100.00
2405;BME280;1213;43.206;27.922;2022-07-12T04:14:20;101469.63;;;19.87;100.00
2405;BME280;1213;43.206;27.922;2022-07-12T04:16:45;101467.56;;;19.81;100.00
2405;BME280;1213;43.206;27.922;2022-07-12T04:19:11;101473.31;;;19.76;100.00
2405;BME280;1213;43.206;27.922;2022-07-12T04:21:37;101468.03;;;19.66;100.00
2405;BME280;1213;43.206;27.922;2022-07-12T04:24:04;101473.34;;;19.66;100.00
2405;BME280;1213;43.206;27.922;2022-07-12T04:26:30;101476.16;;;19.65;100.00
2405;BME280;1213;43.206;27.922;2022-07-12T04:28:55;101470.13;;;19.73;100.00
2405;BME280;1213;43.206;27.922;2022-07-12T04:31:21;101470.66;;;19.76;100.00
2405;BME280;1213;43.206;27.922;2022-07-12T04:33:46;101478.66;;;19.76;100.00
2405;BME280;1213;43.206;27.922;2022-07-12T04:36:11;101473.56;;;19.92;100.00
2405;BME280;1213;43.206;27.922;2022-07-12T04:38:37;101473.81;;;19.99;100.00
2405;BME280;1213;43.206;27.922;2022-07-12T04:41:02;101472.13;;;19.98;100.00
2405;BME280;1213;43.206;27.922;2022-07-12T04:43:28;101478.75;;;19.94;100.00
2405;BME280;1213;43.206;27.922;2022-07-12T04:45:53;101475.75;;;20.07;100.00
2405;BME280;1213;43.206;27.922;2022-07-12T04:48:19;101475.13;;;20.22;100.00
2405;BME280;1213;43.206;27.922;2022-07-12T04:50:45;101472.88;;;20.28;100.00
2405;BME280;1213;43.206;27.922;2022-07-12T04:53:10;101474.25;;;20.32;100.00
2405;BME280;1213;43.206;27.922;2022-07-12T04:55:36;101472.38;;;20.42;100.00
2405;BME280;1213;43.206;27.922;2022-07-12T04:58:02;101473.97;;;20.35;100.00
2405;BME280;1213;43.206;27.922;2022-07-12T05:00:27;101475.22;;;20.31;100.00
2405;BME280;1213;43.206;27.922;2022-07-12T05:02:53;101473.56;;;20.30;100.00
2405;BME280;1213;43.206;27.922;2022-07-12T05:05:19;101466.22;;;20.41;100.00
2405;BME280;1213;43.206;27.922;2022-07-12T05:07:44;101467.94;;;20.60;100.00
2405;BME280;1213;43.206;27.922;2022-07-12T05:10:10;101468.88;;;20.69;100.00
2405;BME280;1213;43.206;27.922;2022-07-12T05:12:35;101469.59;;;20.89;100.00
2405;BME280;1213;43.206;27.922;2022-07-12T05:15:02;101462.97;;;21.11;100.00
2405;BME280;1213;43.206;27.922;2022-07-12T05:17:27;101464.41;;;21.05;100.00
2405;BME280;1213;43.206;27.922;2022-07-12T05:19:53;101466.91;;;21.06;100.00
2405;BME280;1213;43.206;27.922;2022-07-12T05:22:18;101465.47;;;21.12;100.00
2405;BME280;1213;43.206;27.922;2022-07-12T05:24:44;101468.06;;;21.04;100.00
2405;BME280;1213;43.206;27.922;2022-07-12T05:27:09;101474.56;;;21.01;100.00
2405;BME280;1213;43.206;27.922;2022-07-12T05:29:35;101474.41;;;21.03;100.00
2405;BME280;1213;43.206;27.922;2022-07-12T05:32:01;101484.31;;;20.93;100.00
2405;BME280;1213;43.206;27.922;2022-07-12T05:34:27;101473.84;;;20.99;98.58
2405;BME280;1213;43.206;27.922;2022-07-12T05:36:53;101475.00;;;20.97;98.66
2405;BME280;1213;43.206;27.922;2022-07-12T05:39:18;101467.22;;;21.03;99.05
2405;BME280;1213;43.206;27.922;2022-07-12T05:41:44;101468.81;;;21.14;99.65
2405;BME280;1213;43.206;27.922;2022-07-12T05:44:12;101477.34;;;21.27;97.79
2405;BME280;1213;43.206;27.922;2022-07-12T05:46:37;101472.13;;;21.26;98.09
2405;BME280;1213;43.206;27.922;2022-07-12T05:49:03;101472.00;;;21.27;98.24
2405;BME280;1213;43.206;27.922;2022-07-12T05:51:28;101473.88;;;21.17;98.83
2405;BME280;1213;43.206;27.922;2022-07-12T05:54:12;101476.78;;;21.24;98.46
2405;BME280;1213;43.206;27.922;2022-07-12T05:56:38;101468.59;;;21.25;98.07
2405;BME280;1213;43.206;27.922;2022-07-12T05:59:03;101474.34;;;21.30;100.00
2405;BME280;1213;43.206;27.922;2022-07-12T06:01:29;101477.56;;;21.34;100.00
2405;BME280;1213;43.206;27.922;2022-07-12T06:03:54;101472.88;;;21.18;100.00
2405;BME280;1213;43.206;27.922;2022-07-12T06:06:20;101479.59;;;21.22;100.00
2405;BME280;1213;43.206;27.922;2022-07-12T06:08:45;101489.78;;;21.37;97.16
2405;BME280;1213;43.206;27.922;2022-07-12T06:11:11;101483.81;;;21.43;97.62
2405;BME280;1213;43.206;27.922;2022-07-12T06:13:37;101481.25;;;21.59;98.50
2405;BME280;1213;43.206;27.922;2022-07-12T06:16:03;101483.00;;;21.68;97.58
2405;BME280;1213;43.206;27.922;2022-07-12T06:18:31;101487.47;;;21.85;96.85
2405;BME280;1213;43.206;27.922;2022-07-12T06:20:57;101485.19;;;21.99;100.00
2405;BME280;1213;43.206;27.922;2022-07-12T06:23:22;101478.59;;;22.11;97.57
2405;BME280;1213;43.206;27.922;2022-07-12T06:25:48;101483.56;;;22.06;94.92
2405;BME280;1213;43.206;27.922;2022-07-12T06:28:13;101485.97;;;22.09;97.90
2405;BME280;1213;43.206;27.922;2022-07-12T06:30:39;101476.97;;;22.18;97.79
2405;BME280;1213;43.206;27.922;2022-07-12T06:33:04;101492.78;;;22.29;97.69
2405;BME280;1213;43.206;27.922;2022-07-12T06:35:30;101481.84;;;22.23;92.35
2405;BME280;1213;43.206;27.922;2022-07-12T06:37:55;101481.50;;;22.18;96.31
2405;BME280;1213;43.206;27.922;2022-07-12T06:40:21;101484.91;;;22.36;97.36
2405;BME280;1213;43.206;27.922;2022-07-12T06:42:48;101477.56;;;22.38;92.52
2405;BME280;1213;43.206;27.922;2022-07-12T06:45:14;101468.41;;;22.49;90.67
2405;BME280;1213;43.206;27.922;2022-07-12T06:47:40;101471.09;;;22.57;87.07
2405;BME280;1213;43.206;27.922;2022-07-12T06:50:05;101460.75;;;22.62;87.83
2405;BME280;1213;43.206;27.922;2022-07-12T06:52:31;101461.44;;;22.72;87.33
2405;BME280;1213;43.206;27.922;2022-07-12T06:54:57;101461.44;;;22.80;85.28
2405;BME280;1213;43.206;27.922;2022-07-12T06:57:23;101462.81;;;22.84;86.24
2405;BME280;1213;43.206;27.922;2022-07-12T06:59:48;101459.81;;;22.87;83.20
2405;BME280;1213;43.206;27.922;2022-07-12T07:02:14;101461.47;;;22.88;83.55
2405;BME280;1213;43.206;27.922;2022-07-12T07:04:40;101457.13;;;22.87;83.80
2405;BME280;1213;43.206;27.922;2022-07-12T07:07:06;101452.63;;;22.96;83.75
2405;BME280;1213;43.206;27.922;2022-07-12T07:09:32;101452.47;;;23.06;78.68
2405;BME280;1213;43.206;27.922;2022-07-12T07:12:00;101458.00;;;23.12;78.67
2405;BME280;1213;43.206;27.922;2022-07-12T07:14:26;101446.94;;;23.23;78.37
2405;BME280;1213;43.206;27.922;2022-07-12T07:16:55;101444.44;;;23.30;77.45
2405;BME280;1213;43.206;27.922;2022-07-12T07:19:20;101452.47;;;23.38;76.46
2405;BME280;1213;43.206;27.922;2022-07-12T07:21:48;101440.38;;;23.42;77.21
2405;BME280;1213;43.206;27.922;2022-07-12T07:24:13;101436.19;;;23.64;76.23
2405;BME280;1213;43.206;27.922;2022-07-12T07:26:39;101439.72;;;23.81;76.64
2405;BME280;1213;43.206;27.922;2022-07-12T07:29:04;101437.84;;;23.90;75.34
2405;BME280;1213;43.206;27.922;2022-07-12T07:31:48;101432.75;;;23.95;75.05
2405;BME280;1213;43.206;27.922;2022-07-12T07:34:14;101432.59;;;24.04;73.34
2405;BME280;1213;43.206;27.922;2022-07-12T07:36:39;101438.09;;;24.03;72.79
2405;BME280;1213;43.206;27.922;2022-07-12T07:39:05;101432.53;;;24.13;72.11
2405;BME280;1213;43.206;27.922;2022-07-12T07:41:30;101439.25;;;24.08;72.56
2405;BME280;1213;43.206;27.922;2022-07-12T07:43:56;101434.72;;;24.09;73.38
2405;BME280;1213;43.206;27.922;2022-07-12T07:46:21;101454.22;;;24.11;71.82
2405;BME280;1213;43.206;27.922;2022-07-12T07:48:47;101434.44;;;24.04;73.94
2405;BME280;1213;43.206;27.922;2022-07-12T07:51:12;101442.31;;;24.05;72.28
2405;BME280;1213;43.206;27.922;2022-07-12T07:53:38;101452.31;;;24.20;72.23
2405;BME280;1213;43.206;27.922;2022-07-12T07:56:04;101436.81;;;24.30;72.85
2405;BME280;1213;43.206;27.922;2022-07-12T07:58:29;101447.09;;;24.34;72.33
2405;BME280;1213;43.206;27.922;2022-07-12T08:00:55;101446.88;;;24.44;73.84
2405;BME280;1213;43.206;27.922;2022-07-12T08:03:20;101449.16;;;24.55;73.40
2405;BME280;1213;43.206;27.922;2022-07-12T08:05:47;101451.97;;;24.62;70.97
2405;BME280;1213;43.206;27.922;2022-07-12T08:08:13;101446.63;;;24.54;69.97
2405;BME280;1213;43.206;27.922;2022-07-12T08:10:38;101441.91;;;24.56;71.53
2405;BME280;1213;43.206;27.922;2022-07-12T08:13:04;101436.28;;;24.74;72.01
2405;BME280;1213;43.206;27.922;2022-07-12T08:15:30;101440.22;;;24.86;69.59
2405;BME280;1213;43.206;27.922;2022-07-12T08:17:56;101425.16;;;25.00;68.66
2405;BME280;1213;43.206;27.922;2022-07-12T08:20:25;101428.81;;;25.30;68.50
2405;BME280;1213;43.206;27.922;2022-07-12T08:22:51;101427.38;;;25.42;67.11
2405;BME280;1213;43.206;27.922;2022-07-12T08:25:16;101434.66;;;25.71;68.19
2405;BME280;1213;43.206;27.922;2022-07-12T08:27:42;101421.38;;;25.69;66.17
2405;BME280;1213;43.206;27.922;2022-07-12T08:30:09;101430.31;;;25.32;65.35
2405;BME280;1213;43.206;27.922;2022-07-12T08:32:36;101432.72;;;25.04;67.11
2405;BME280;1213;43.206;27.922;2022-07-12T08:35:03;101431.75;;;24.97;68.92
2405;BME280;1213;43.206;27.922;2022-07-12T08:37:28;101426.75;;;25.17;69.08
2405;BME280;1213;43.206;27.922;2022-07-12T08:39:54;101425.59;;;25.34;68.77
2405;BME280;1213;43.206;27.922;2022-07-12T08:42:19;101429.66;;;25.45;68.38
2405;BME280;1213;43.206;27.922;2022-07-12T08:44:54;101429.44;;;25.55;67.55
2405;BME280;1213;43.206;27.922;2022-07-12T08:47:20;101417.25;;;25.59;67.10
2405;BME280;1213;43.206;27.922;2022-07-12T08:52:45;101413.66;;;25.66;65.23
2405;BME280;1213;43.206;27.922;2022-07-12T08:55:29;101415.22;;;25.61;65.84
2405;BME280;1213;43.206;27.922;2022-07-12T08:57:57;101412.38;;;25.62;65.10
2405;BME280;1213;43.206;27.922;2022-07-12T09:00:24;101410.91;;;25.75;66.52
2405;BME280;1213;43.206;27.922;2022-07-12T09:02:57;101410.78;;;25.97;66.58
2405;BME280;1213;43.206;27.922;2022-07-12T09:05:25;101400.75;;;26.06;64.48
2405;BME280;1213;43.206;27.922;2022-07-12T09:07:51;101409.19;;;26.18;65.85
2405;BME280;1213;43.206;27.922;2022-07-12T09:10:17;101411.16;;;26.09;64.48
2405;BME280;1213;43.206;27.922;2022-07-12T09:12:44;101413.13;;;26.15;64.07
2405;BME280;1213;43.206;27.922;2022-07-12T09:15:14;101407.91;;;25.99;63.77
2405;BME280;1213;43.206;27.922;2022-07-12T09:17:45;101412.13;;;25.87;64.85
2405;BME280;1213;43.206;27.922;2022-07-12T09:20:12;101404.25;;;26.21;65.14
2405;BME280;1213;43.206;27.922;2022-07-12T09:22:50;101399.22;;;26.48;64.00
2405;BME280;1213;43.206;27.922;2022-07-12T09:25:16;101388.72;;;26.38;64.86
2405;BME280;1213;43.206;27.922;2022-07-12T09:27:50;101391.56;;;26.37;61.57
2405;BME280;1213;43.206;27.922;2022-07-12T09:30:16;101399.81;;;26.65;63.60
2405;BME280;1213;43.206;27.922;2022-07-12T09:35:40;101399.88;;;27.14;62.69
2405;BME280;1213;43.206;27.922;2022-07-12T09:38:25;101396.59;;;27.19;63.02
2405;BME280;1213;43.206;27.922;2022-07-12T09:40:53;101397.03;;;27.01;62.84
2405;BME280;1213;43.206;27.922;2022-07-12T09:43:20;101384.06;;;26.90;62.63
2405;BME280;1213;43.206;27.922;2022-07-12T09:45:47;101387.22;;;26.93;61.76
2405;BME280;1213;43.206;27.922;2022-07-12T09:48:13;101382.94;;;26.77;61.04
2405;BME280;1213;43.206;27.922;2022-07-12T09:50:39;101394.63;;;27.06;61.82
2405;BME280;1213;43.206;27.922;2022-07-12T09:53:05;101384.19;;;27.03;62.34
2405;BME280;1213;43.206;27.922;2022-07-12T09:55:36;101382.25;;;26.97;61.40
2405;BME280;1213;43.206;27.922;2022-07-12T09:58:04;101388.19;;;26.64;62.47
2405;BME280;1213;43.206;27.922;2022-07-12T10:00:30;101385.56;;;26.71;60.77
2405;BME280;1213;43.206;27.922;2022-07-12T10:02:58;101373.81;;;26.78;62.19
2405;BME280;1213;43.206;27.922;2022-07-12T10:05:25;101367.38;;;27.01;61.29
2405;BME280;1213;43.206;27.922;2022-07-12T10:07:51;101380.75;;;27.09;59.99
2405;BME280;1213;43.206;27.922;2022-07-12T10:10:18;101363.63;;;27.23;60.42
2405;BME280;1213;43.206;27.922;2022-07-12T10:12:44;101355.50;;;27.51;60.91
2405;BME280;1213;43.206;27.922;2022-07-12T10:15:20;101376.44;;;27.77;60.34
2405;BME280;1213;43.206;27.922;2022-07-12T10:17:55;101366.28;;;27.79;60.97
2405;BME280;1213;43.206;27.922;2022-07-12T10:20:25;101357.81;;;27.96;60.36
2405;BME280;1213;43.206;27.922;2022-07-12T10:23:36;101359.41;;;27.77;61.83
2405;BME280;1213;43.206;27.922;2022-07-12T10:25:43;101357.38;;;27.85;61.06
2405;BME280;1213;43.206;27.922;2022-07-12T10:28:08;101359.81;;;27.80;61.77
2405;BME280;1213;43.206;27.922;2022-07-12T10:30:50;101357.72;;;27.69;61.61
2405;BME280;1213;43.206;27.922;2022-07-12T10:33:16;101351.47;;;27.41;60.60
2405;BME280;1213;43.206;27.922;2022-07-12T10:35:58;101356.97;;;27.54;62.10
2405;BME280;1213;43.206;27.922;2022-07-12T10:38:24;101348.84;;;27.82;60.84
2405;BME280;1213;43.206;27.922;2022-07-12T10:40:51;101346.00;;;27.97;59.98
2405;BME280;1213;43.206;27.922;2022-07-12T10:43:22;101350.13;;;27.92;60.87
2405;BME280;1213;43.206;27.922;2022-07-12T10:46:17;101349.69;;;27.82;61.46
2405;BME280;1213;43.206;27.922;2022-07-12T10:48:44;101352.34;;;27.76;61.08
2405;BME280;1213;43.206;27.922;2022-07-12T10:51:14;101340.78;;;27.54;61.82
2405;BME280;1213;43.206;27.922;2022-07-12T10:53:40;101345.75;;;27.57;63.06
2405;BME280;1213;43.206;27.922;2022-07-12T10:58:51;101334.63;;;27.67;62.83
2405;BME280;1213;43.206;27.922;2022-07-12T11:01:21;101335.81;;;27.99;62.91
2405;BME280;1213;43.206;27.922;2022-07-12T11:06:24;101326.81;;;28.53;59.39
2405;BME280;1213;43.206;27.922;2022-07-12T11:09:03;101333.47;;;28.37;59.89
2405;BME280;1213;43.206;27.922;2022-07-12T11:11:31;101329.91;;;28.36;59.43
2405;BME280;1213;43.206;27.922;2022-07-12T11:13:58;101321.44;;;28.59;59.26
2405;BME280;1213;43.206;27.922;2022-07-12T11:16:24;101316.22;;;28.78;59.12
2405;BME280;1213;43.206;27.922;2022-07-12T11:18:50;101312.94;;;29.02;58.95
2405;BME280;1213;43.206;27.922;2022-07-12T11:21:16;101312.50;;;28.92;58.49
2405;BME280;1213;43.206;27.922;2022-07-12T11:23:42;101319.34;;;28.81;58.97
2405;BME280;1213;43.206;27.922;2022-07-12T11:26:09;101315.19;;;28.72;59.20
2405;BME280;1213;43.206;27.922;2022-07-12T11:28:36;101322.91;;;29.01;58.96
2405;BME280;1213;43.206;27.922;2022-07-12T11:31:03;101308.13;;;29.11;57.82
2405;BME280;1213;43.206;27.922;2022-07-12T11:33:36;101311.44;;;29.13;58.73
2405;BME280;1213;43.206;27.922;2022-07-12T11:36:07;101313.91;;;29.34;58.06
2405;BME280;1213;43.206;27.922;2022-07-12T11:38:34;101309.78;;;29.12;59.07
2405;BME280;1213;43.206;27.922;2022-07-12T11:41:02;101316.66;;;28.88;60.62
2405;BME280;1213;43.206;27.922;2022-07-12T11:43:29;101308.53;;;29.08;60.62
2405;BME280;1213;43.206;27.922;2022-07-12T11:45:56;101302.06;;;29.15;60.85
2405;BME280;1213;43.206;27.922;2022-07-12T11:48:23;101317.91;;;28.98;61.18
2405;BME280;1213;43.206;27.922;2022-07-12T11:50:53;101310.22;;;28.95;61.35
2405;BME280;1213;43.206;27.922;2022-07-12T11:53:29;101323.50;;;28.77;62.62
2405;BME280;1213;43.206;27.922;2022-07-12T11:55:56;101329.44;;;28.26;61.68
2405;BME280;1213;43.206;27.922;2022-07-12T11:58:23;101327.31;;;28.08;61.27
2405;BME280;1213;43.206;27.922;2022-07-12T12:00:50;101326.66;;;28.00;61.90
2405;BME280;1213;43.206;27.922;2022-07-12T12:03:17;101333.13;;;27.99;61.76
2405;BME280;1213;43.206;27.922;2022-07-12T12:05:45;101330.28;;;27.72;62.79
2405;BME280;1213;43.206;27.922;2022-07-12T12:08:12;101325.97;;;27.78;63.36
2405;BME280;1213;43.206;27.922;2022-07-12T12:10:40;101324.88;;;27.72;64.07
2405;BME280;1213;43.206;27.922;2022-07-12T12:13:13;101328.06;;;27.82;64.33
2405;BME280;1213;43.206;27.922;2022-07-12T12:15:40;101322.22;;;27.79;65.53
2405;BME280;1213;43.206;27.922;2022-07-12T12:18:07;101325.41;;;27.96;64.86
2405;BME280;1213;43.206;27.922;2022-07-12T12:20:34;101322.94;;;28.07;64.70
2405;BME280;1213;43.206;27.922;2022-07-12T12:23:02;101319.78;;;27.90;65.20
2405;BME280;1213;43.206;27.922;2022-07-12T12:25:30;101323.47;;;27.76;65.78
2405;BME280;1213;43.206;27.922;2022-07-12T12:28:00;101318.44;;;27.73;65.34
2405;BME280;1213;43.206;27.922;2022-07-12T12:30:31;101314.38;;;27.90;65.71
2405;BME280;1213;43.206;27.922;2022-07-12T12:32:59;101306.91;;;27.99;64.66
2405;BME280;1213;43.206;27.922;2022-07-12T12:35:33;101311.44;;;27.85;63.22
2405;BME280;1213;43.206;27.922;2022-07-12T12:38:01;101315.66;;;28.01;63.08
2405;BME280;1213;43.206;27.922;2022-07-12T12:40:29;101299.84;;;27.98;63.05
2405;BME280;1213;43.206;27.922;2022-07-12T12:43:09;101309.47;;;28.20;64.18
2405;BME280;1213;43.206;27.922;2022-07-12T12:45:35;101295.81;;;28.48;62.77
2405;BME280;1213;43.206;27.922;2022-07-12T12:48:03;101302.91;;;28.43;61.26
2405;BME280;1213;43.206;27.922;2022-07-12T12:50:43;101310.78;;;28.31;60.42
2405;BME280;1213;43.206;27.922;2022-07-12T12:55:46;101300.75;;;28.25;60.17
2405;BME280;1213;43.206;27.922;2022-07-12T12:58:13;101295.97;;;28.27;60.03
2405;BME280;1213;43.206;27.922;2022-07-12T13:00:49;101299.56;;;28.34;60.56
2405;BME280;1213;43.206;27.922;2022-07-12T13:03:18;101297.66;;;28.41;62.45
2405;BME280;1213;43.206;27.922;2022-07-12T13:05:43;101294.78;;;28.50;63.42
2405;BME280;1213;43.206;27.922;2022-07-12T13:08:10;101303.75;;;28.57;62.64
2405;BME280;1213;43.206;27.922;2022-07-12T13:10:37;101303.66;;;28.24;62.51